createdAt,value
2023-03-12T00:02:11.385Z,0.98
2023-03-12T00:04:38.051Z,0.98
2023-03-12T00:07:06.608Z,0.97
2023-03-12T00:09:37.786Z,0.98
2023-03-12T00:12:05.471Z,1.01
2023-03-12T00:14:32.592Z,1.01
2023-03-12T00:16:59.406Z,1.03
2023-03-12T00:19:26.312Z,1.03
2023-03-12T00:21:53.003Z,1.03
2023-03-12T00:24:20.662Z,1.03
2023-03-12T00:26:47.296Z,1.02
2023-03-12T00:29:13.959Z,1.02
2023-03-12T00:31:41.651Z,0.99
2023-03-12T00:34:09.919Z,0.97
2023-03-12T00:36:36.553Z,0.92
2023-03-12T00:39:04.145Z,0.87
2023-03-12T00:41:30.839Z,0.83
2023-03-12T00:43:57.934Z,0.81
2023-03-12T00:46:24.763Z,0.77
2023-03-12T00:48:51.765Z,0.76
2023-03-12T00:51:19.126Z,0.75
2023-03-12T00:53:45.848Z,0.71
2023-03-12T00:56:12.541Z,0.70
2023-03-12T00:58:39.186Z,0.67
2023-03-12T01:01:05.968Z,0.66
2023-03-12T01:03:32.572Z,0.66
2023-03-12T01:05:59.533Z,0.65
2023-03-12T01:08:26.299Z,0.63
2023-03-12T01:10:53.260Z,0.62
2023-03-12T01:13:20.553Z,0.62
2023-03-12T01:15:47.228Z,0.62
2023-03-12T01:18:14.026Z,0.61
2023-03-12T01:20:42.056Z,0.62
2023-03-12T01:23:09.305Z,0.63
2023-03-12T01:25:36.760Z,0.63
2023-03-12T01:28:03.625Z,0.65
2023-03-12T01:30:31.322Z,0.67
2023-03-12T01:32:58.073Z,0.67
2023-03-12T01:35:25.591Z,0.70
2023-03-12T01:37:53.092Z,0.74
2023-03-12T01:40:25.574Z,0.77
2023-03-12T01:42:57.224Z,0.80
2023-03-12T01:46:03.224Z,0.84
2023-03-12T01:48:36.473Z,0.87
2023-03-12T01:51:03.616Z,0.89
2023-03-12T01:53:30.799Z,0.91
2023-03-12T01:56:00.829Z,0.92
2023-03-12T01:58:30.017Z,0.93
2023-03-12T02:00:56.628Z,0.93
2023-03-12T02:03:23.493Z,0.92
2023-03-12T02:06:02.619Z,0.91
2023-03-12T02:08:29.582Z,0.90
2023-03-12T02:10:56.290Z,0.90
2023-03-12T02:13:22.842Z,0.90
2023-03-12T02:15:49.472Z,0.91
2023-03-12T02:18:19.127Z,0.91
2023-03-12T02:21:06.098Z,0.93
2023-03-12T02:23:41.507Z,0.93
2023-03-12T02:26:09.764Z,0.96
2023-03-12T02:28:42.728Z,1.00
2023-03-12T02:31:13.781Z,1.03
2023-03-12T02:33:40.891Z,1.06
2023-03-12T02:36:09.370Z,1.09
2023-03-12T02:38:46.619Z,1.12
2023-03-12T02:41:21.391Z,1.16
2023-03-12T02:44:05.059Z,1.18
2023-03-12T02:46:36.855Z,1.19
2023-03-12T02:49:03.751Z,1.18
2023-03-12T02:51:30.416Z,1.18
2023-03-12T02:53:56.998Z,1.19
2023-03-12T02:56:29.056Z,1.18
2023-03-12T02:58:55.651Z,1.17
2023-03-12T03:01:22.500Z,1.18
2023-03-12T03:03:49.407Z,1.20
2023-03-12T03:06:17.081Z,1.22
2023-03-12T03:08:43.991Z,1.22
2023-03-12T03:11:11.493Z,1.24
2023-03-12T03:13:38.187Z,1.26
2023-03-12T03:16:05.453Z,1.28
2023-03-12T03:18:32.599Z,1.31
2023-03-12T03:21:02.969Z,1.34
2023-03-12T03:23:29.842Z,1.35
2023-03-12T03:25:56.560Z,1.37
2023-03-12T03:28:25.756Z,1.40
2023-03-12T03:30:54.249Z,1.40
2023-03-12T03:33:21.583Z,1.43
2023-03-12T03:35:48.766Z,1.45
2023-03-12T03:38:16.071Z,1.47
2023-03-12T03:40:42.779Z,1.48
2023-03-12T03:43:09.466Z,1.51
2023-03-12T03:45:36.122Z,1.53
2023-03-12T03:48:02.739Z,1.55
2023-03-12T03:50:29.447Z,1.58
2023-03-12T03:52:55.969Z,1.59
2023-03-12T03:55:22.788Z,1.62
2023-03-12T03:57:49.342Z,1.64
2023-03-12T04:00:17.988Z,1.65
2023-03-12T04:02:44.875Z,1.66
2023-03-12T04:05:12.119Z,1.67
2023-03-12T04:07:38.936Z,1.69
2023-03-12T04:10:05.963Z,1.69
2023-03-12T04:12:32.589Z,1.65
2023-03-12T04:14:59.182Z,1.63
2023-03-12T04:17:25.794Z,1.61
2023-03-12T04:19:54.040Z,1.61
2023-03-12T04:22:20.706Z,1.60
2023-03-12T04:24:47.405Z,1.58
2023-03-12T04:27:14.213Z,1.58
2023-03-12T04:29:42.173Z,1.57
2023-03-12T04:32:08.758Z,1.57
2023-03-12T04:34:35.464Z,1.57
2023-03-12T04:37:02.956Z,1.57
2023-03-12T04:39:29.524Z,1.58
2023-03-12T04:41:56.237Z,1.61
2023-03-12T04:44:22.976Z,1.63
2023-03-12T04:46:49.696Z,1.65
2023-03-12T04:49:16.484Z,1.66
2023-03-12T04:51:43.393Z,1.68
2023-03-12T04:54:10.197Z,1.70
2023-03-12T04:56:36.932Z,1.72
2023-03-12T04:59:04.918Z,1.74
2023-03-12T05:01:33.808Z,1.76
2023-03-12T05:04:00.624Z,1.78
2023-03-12T05:06:27.292Z,1.81
2023-03-12T05:08:54.037Z,1.83
2023-03-12T05:11:21.533Z,1.83
2023-03-12T05:13:48.739Z,1.85
2023-03-12T05:16:17.193Z,1.87
2023-03-12T05:18:45.005Z,1.87
2023-03-12T05:21:14.038Z,1.88
2023-03-12T05:23:42.618Z,1.90
2023-03-12T05:26:26.442Z,1.91
2023-03-12T05:28:53.430Z,1.95
2023-03-12T05:31:20.889Z,1.96
2023-03-12T05:33:48.337Z,1.96
2023-03-12T05:36:16.612Z,1.99
2023-03-12T05:38:43.386Z,1.97
2023-03-12T05:41:19.265Z,1.99
2023-03-12T05:43:45.889Z,2.01
2023-03-12T05:46:12.724Z,2.02
2023-03-12T05:48:39.321Z,2.03
2023-03-12T05:51:05.896Z,2.03
2023-03-12T05:53:34.162Z,2.06
2023-03-12T05:56:11.072Z,2.07
2023-03-12T05:58:38.126Z,2.08
2023-03-12T06:01:12.069Z,2.08
2023-03-12T06:03:38.706Z,2.10
2023-03-12T06:06:05.600Z,2.10
2023-03-12T06:08:32.334Z,2.11
2023-03-12T06:10:59.543Z,2.11
2023-03-12T06:13:28.084Z,2.12
2023-03-12T06:15:54.665Z,2.13
2023-03-12T06:18:21.280Z,2.15
2023-03-12T06:20:47.778Z,2.17
2023-03-12T06:23:14.413Z,2.19
2023-03-12T06:25:41.499Z,2.22
2023-03-12T06:28:08.182Z,2.21
2023-03-12T06:30:34.784Z,2.24
2023-03-12T06:33:04.066Z,2.24
2023-03-12T06:35:30.652Z,2.27
2023-03-12T06:37:57.211Z,2.27
2023-03-12T06:40:23.809Z,2.28
2023-03-12T06:42:50.431Z,2.30
2023-03-12T06:45:18.413Z,2.32
2023-03-12T06:47:45.087Z,2.34
2023-03-12T06:50:11.672Z,2.38
2023-03-12T06:52:38.413Z,2.42
2023-03-12T06:55:05.515Z,2.44
2023-03-12T06:57:32.117Z,2.46
2023-03-12T06:59:58.756Z,2.50
2023-03-12T07:02:25.497Z,2.53
2023-03-12T07:04:52.467Z,2.57
2023-03-12T07:07:20.089Z,2.60
2023-03-12T07:09:46.680Z,2.60
2023-03-12T07:12:13.346Z,2.62
2023-03-12T07:14:40.016Z,2.62
2023-03-12T07:17:07.214Z,2.62
2023-03-12T07:19:33.856Z,2.62
2023-03-12T07:22:00.738Z,2.62
2023-03-12T07:24:27.364Z,2.63
2023-03-12T07:26:53.979Z,2.64
2023-03-12T07:29:20.572Z,2.65
2023-03-12T07:31:47.162Z,2.67
2023-03-12T07:34:13.937Z,2.70
2023-03-12T07:36:40.685Z,2.74
2023-03-12T07:39:08.231Z,2.75
2023-03-12T07:41:37.325Z,2.75
2023-03-12T07:44:03.952Z,2.75
2023-03-12T07:46:31.740Z,2.75
2023-03-12T07:48:58.497Z,2.76
2023-03-12T07:51:25.154Z,2.79
2023-03-12T07:53:51.689Z,2.80
2023-03-12T07:56:18.836Z,2.79
2023-03-12T07:58:46.362Z,2.82
2023-03-12T08:01:13.329Z,2.86
2023-03-12T08:03:41.214Z,2.87
2023-03-12T08:06:08.026Z,2.88
2023-03-12T08:08:36.213Z,2.91
2023-03-12T08:11:05.098Z,2.92
2023-03-12T08:13:31.734Z,2.93
2023-03-12T08:15:58.371Z,2.93
2023-03-12T08:18:26.941Z,2.94
2023-03-12T08:20:54.614Z,2.98
2023-03-12T08:23:22.108Z,2.98
2023-03-12T08:25:49.857Z,2.99
2023-03-12T08:28:17.750Z,3.01
2023-03-12T08:30:49.772Z,3.01
2023-03-12T08:33:16.830Z,3.04
2023-03-12T08:35:43.603Z,3.03
2023-03-12T08:38:10.450Z,3.04
2023-03-12T08:40:37.339Z,3.04
2023-03-12T08:43:04.665Z,3.05
2023-03-12T08:45:31.533Z,3.09
2023-03-12T08:47:58.209Z,3.09
2023-03-12T08:50:29.259Z,3.09
2023-03-12T08:52:56.380Z,3.12
2023-03-12T08:55:23.068Z,3.16
2023-03-12T08:57:49.705Z,3.20
2023-03-12T09:00:17.980Z,3.23
2023-03-12T09:02:45.301Z,3.25
2023-03-12T09:05:12.280Z,3.29
2023-03-12T09:07:39.022Z,3.30
2023-03-12T09:10:06.931Z,3.30
2023-03-12T09:12:33.676Z,3.31
2023-03-12T09:15:04.543Z,3.33
2023-03-12T09:17:32.692Z,3.34
2023-03-12T09:20:00.103Z,3.33
2023-03-12T09:22:26.721Z,3.37
2023-03-12T09:24:53.448Z,3.39
2023-03-12T09:27:19.986Z,3.40
2023-03-12T09:29:59.570Z,3.43
2023-03-12T09:32:27.945Z,3.42
2023-03-12T09:34:54.996Z,3.43
2023-03-12T09:37:23.973Z,3.46
2023-03-12T09:39:53.249Z,3.48
2023-03-12T09:42:40.115Z,3.50
2023-03-12T09:45:10.685Z,3.54
2023-03-12T09:47:47.884Z,3.58
2023-03-12T09:50:46.161Z,3.61
2023-03-12T09:53:41.729Z,3.63
2023-03-12T09:56:18.245Z,3.66
2023-03-12T09:58:49.322Z,3.68
2023-03-12T10:01:29.893Z,3.71
2023-03-12T10:04:14.511Z,3.72
2023-03-12T10:06:46.884Z,3.74
2023-03-12T10:09:44.874Z,3.78
2023-03-12T10:12:44.889Z,3.81
2023-03-12T10:15:24.252Z,3.84
2023-03-12T10:17:56.424Z,3.87
2023-03-12T10:20:44.213Z,3.89
2023-03-12T10:23:21.046Z,3.96
2023-03-12T10:25:59.546Z,4.03
2023-03-12T10:28:30.439Z,4.06
2023-03-12T10:31:06.385Z,4.12
2023-03-12T10:33:48.911Z,4.19
2023-03-12T10:36:19.395Z,4.28
2023-03-12T10:38:48.542Z,4.31
2023-03-12T10:41:22.139Z,4.35
2023-03-12T10:43:48.832Z,4.39
2023-03-12T10:46:54.116Z,4.44
2023-03-12T10:49:24.711Z,4.49
2023-03-12T10:52:14.237Z,4.56
2023-03-12T10:54:44.435Z,4.62
2023-03-12T10:57:13.773Z,4.67
2023-03-12T10:59:43.322Z,4.72
2023-03-12T11:02:33.335Z,4.82
2023-03-12T11:05:02.740Z,4.91
2023-03-12T11:07:35.428Z,4.98
2023-03-12T11:10:07.920Z,5.04
2023-03-12T11:12:40.063Z,5.07
2023-03-12T11:15:20.687Z,5.10
2023-03-12T11:17:47.686Z,5.14
2023-03-12T11:20:29.881Z,5.23
2023-03-12T11:22:56.910Z,5.32
2023-03-12T11:25:29.108Z,5.39
2023-03-12T11:28:00.755Z,5.42
2023-03-12T11:30:37.983Z,5.43
2023-03-12T11:33:05.971Z,5.45
2023-03-12T11:36:05.129Z,5.48
2023-03-12T11:39:05.362Z,5.52
2023-03-12T11:42:01.076Z,5.54
2023-03-12T11:44:38.880Z,5.54
2023-03-12T11:47:32.670Z,5.55
2023-03-12T11:50:11.555Z,5.57
2023-03-12T11:53:17.422Z,5.60
2023-03-12T11:55:54.321Z,5.64
2023-03-12T11:58:20.738Z,5.69
2023-03-12T12:00:59.552Z,5.78
2023-03-12T12:04:17.289Z,5.85
2023-03-12T12:07:08.485Z,5.91
2023-03-12T12:09:51.162Z,5.94
2023-03-12T12:12:52.295Z,5.99
2023-03-12T12:15:28.072Z,6.04
2023-03-12T12:18:15.959Z,6.10
2023-03-12T12:21:01.683Z,6.16
2023-03-12T12:24:05.197Z,6.21
2023-03-12T12:27:09.347Z,6.28
2023-03-12T12:29:43.369Z,6.36
2023-03-12T12:32:41.811Z,6.48
2023-03-12T12:35:37.108Z,6.55
2023-03-12T12:38:13.448Z,6.63
2023-03-12T12:40:49.069Z,6.75
2023-03-12T12:43:23.770Z,6.86
2023-03-12T12:45:53.275Z,6.95
2023-03-12T12:48:40.343Z,7.01
2023-03-12T12:51:09.063Z,7.08
2023-03-12T12:53:57.780Z,7.16
2023-03-12T12:56:38.645Z,7.21
2023-03-12T12:59:37.033Z,7.28
2023-03-12T13:02:16.935Z,7.37
2023-03-12T13:04:45.477Z,7.45
2023-03-12T13:07:12.071Z,7.48
2023-03-12T13:09:44.406Z,7.55
2023-03-12T13:12:40.932Z,7.62
2023-03-12T13:15:30.232Z,7.77
2023-03-12T13:17:59.707Z,7.91
2023-03-12T13:20:42.206Z,8.02
2023-03-12T13:23:27.087Z,8.07
2023-03-12T13:26:22.667Z,8.15
2023-03-12T13:29:06.046Z,8.20
2023-03-12T13:31:39.362Z,8.26
2023-03-12T13:34:06.047Z,8.29
2023-03-12T13:36:37.095Z,8.31
2023-03-12T13:39:06.854Z,8.36
2023-03-12T13:41:49.945Z,8.37
2023-03-12T13:44:39.719Z,8.45
2023-03-12T13:47:12.178Z,8.49
2023-03-12T13:49:47.784Z,8.50
2023-03-12T13:52:14.397Z,8.54
2023-03-12T13:54:45.347Z,8.55
2023-03-12T13:57:31.901Z,8.61
2023-03-12T13:59:59.942Z,8.63
2023-03-12T14:02:36.893Z,8.65
2023-03-12T14:05:10.716Z,8.69
2023-03-12T14:07:55.402Z,8.66
2023-03-12T14:10:33.144Z,8.66
2023-03-12T14:13:33.804Z,8.65
2023-03-12T14:16:11.520Z,8.67
2023-03-12T14:18:39.902Z,8.74
2023-03-12T14:21:14.596Z,8.77
2023-03-12T14:23:49.412Z,8.73
2023-03-12T14:26:24.602Z,8.72
2023-03-12T14:29:05.498Z,8.71
2023-03-12T14:31:33.518Z,8.74
2023-03-12T14:34:15.229Z,8.75
2023-03-12T14:36:47.431Z,8.78
2023-03-12T14:39:43.557Z,8.78
2023-03-12T14:42:18.390Z,8.83
2023-03-12T14:44:58.520Z,8.89
2023-03-12T14:47:25.259Z,8.93
2023-03-12T14:49:52.227Z,9.01
2023-03-12T14:52:30.300Z,9.05
2023-03-12T14:55:08.013Z,9.06
2023-03-12T14:57:34.881Z,9.11
2023-03-12T15:00:01.932Z,9.13
2023-03-12T15:02:31.372Z,9.18
2023-03-12T15:05:01.520Z,9.23
2023-03-12T15:07:35.437Z,9.25
2023-03-12T15:10:06.126Z,9.28
2023-03-12T15:12:38.142Z,9.31
2023-03-12T15:15:23.209Z,9.31
2023-03-12T15:17:50.525Z,9.36
2023-03-12T15:20:26.055Z,9.41
2023-03-12T15:22:53.592Z,9.42
2023-03-12T15:25:33.674Z,9.49
2023-03-12T15:28:28.483Z,9.52
2023-03-12T15:31:24.907Z,9.54
2023-03-12T15:34:05.965Z,9.58
2023-03-12T15:36:50.337Z,9.59
2023-03-12T15:39:22.813Z,9.60
2023-03-12T15:41:49.954Z,9.60
2023-03-12T15:44:19.848Z,9.62
2023-03-12T15:46:48.943Z,9.62
2023-03-12T15:49:26.471Z,9.60
2023-03-12T15:52:24.727Z,9.59
2023-03-12T15:55:01.881Z,9.59
2023-03-12T15:57:30.063Z,9.58
2023-03-12T16:00:14.776Z,9.57
2023-03-12T16:02:50.432Z,9.56
2023-03-12T16:05:18.491Z,9.55
2023-03-12T16:07:45.064Z,9.57
2023-03-12T16:10:15.692Z,9.56
2023-03-12T16:12:44.176Z,9.55
2023-03-12T16:15:22.782Z,9.58
2023-03-12T16:17:49.406Z,9.61
2023-03-12T16:20:17.770Z,9.64
2023-03-12T16:22:44.687Z,9.65
2023-03-12T16:25:13.164Z,9.69
2023-03-12T16:27:49.226Z,9.73
2023-03-12T16:30:26.107Z,9.74
2023-03-12T16:32:52.958Z,9.75
2023-03-12T16:35:21.021Z,9.74
2023-03-12T16:37:48.104Z,9.74
2023-03-12T16:40:27.526Z,9.75
2023-03-12T16:43:02.907Z,9.75
2023-03-12T16:45:33.196Z,9.73
2023-03-12T16:48:02.224Z,9.72
2023-03-12T16:50:29.253Z,9.71
2023-03-12T16:52:55.810Z,9.71
2023-03-12T16:55:26.420Z,9.66
2023-03-12T16:58:00.343Z,9.63
2023-03-12T17:00:30.404Z,9.57
2023-03-12T17:02:58.088Z,9.56
2023-03-12T17:05:26.688Z,9.52
2023-03-12T17:07:54.738Z,9.51
2023-03-12T17:10:22.608Z,9.49
2023-03-12T17:12:49.975Z,9.46
2023-03-12T17:15:28.317Z,9.45
2023-03-12T17:17:59.445Z,9.42
2023-03-12T17:20:26.891Z,9.39
2023-03-12T17:22:53.399Z,9.37
2023-03-12T17:25:26.753Z,9.36
2023-03-12T17:27:54.022Z,9.35
2023-03-12T17:30:22.270Z,9.33
2023-03-12T17:32:50.987Z,9.30
2023-03-12T17:35:19.149Z,9.29
2023-03-12T17:37:48.436Z,9.28
2023-03-12T17:40:15.933Z,9.24
2023-03-12T17:42:42.599Z,9.22
2023-03-12T17:45:10.322Z,9.22
2023-03-12T17:47:37.352Z,9.22
2023-03-12T17:50:08.103Z,9.19
2023-03-12T17:52:35.626Z,9.17
2023-03-12T17:55:03.413Z,9.14
2023-03-12T17:57:30.157Z,9.14
2023-03-12T17:59:56.837Z,9.12
2023-03-12T18:02:23.611Z,9.12
2023-03-12T18:04:50.409Z,9.10
2023-03-12T18:07:17.520Z,9.10
2023-03-12T18:09:44.677Z,9.11
2023-03-12T18:12:12.526Z,9.08
2023-03-12T18:14:39.148Z,9.09
2023-03-12T18:17:06.829Z,9.09
2023-03-12T18:19:35.253Z,9.10
2023-03-12T18:22:02.239Z,9.11
2023-03-12T18:24:28.913Z,9.12
2023-03-12T18:26:55.726Z,9.15
2023-03-12T18:29:22.307Z,9.16
2023-03-12T18:31:48.848Z,9.16
2023-03-12T18:34:16.007Z,9.18
2023-03-12T18:36:42.744Z,9.18
2023-03-12T18:39:09.890Z,9.17
2023-03-12T18:41:36.619Z,9.17
2023-03-12T18:44:03.629Z,9.15
2023-03-12T18:46:30.414Z,9.13
2023-03-12T18:48:57.137Z,9.10
2023-03-12T18:51:23.806Z,9.06
2023-03-12T18:53:50.385Z,9.07
2023-03-12T18:56:17.958Z,9.08
2023-03-12T18:58:44.497Z,9.08
2023-03-12T19:01:13.054Z,9.09
2023-03-12T19:03:39.955Z,9.10
2023-03-12T19:06:10.094Z,9.10
2023-03-12T19:08:38.069Z,9.11
2023-03-12T19:11:07.273Z,9.14
2023-03-12T19:13:33.980Z,9.15
2023-03-12T19:16:02.467Z,9.18
2023-03-12T19:18:29.814Z,9.20
2023-03-12T19:20:57.490Z,9.21
2023-03-12T19:23:24.183Z,9.21
2023-03-12T19:25:51.155Z,9.22
2023-03-12T19:28:17.955Z,9.23
2023-03-12T19:30:44.576Z,9.24
2023-03-12T19:33:11.319Z,9.24
2023-03-12T19:35:39.579Z,9.24
2023-03-12T19:38:06.338Z,9.22
2023-03-12T19:40:34.189Z,9.22
2023-03-12T19:43:01.776Z,9.21
2023-03-12T19:45:28.636Z,9.20
2023-03-12T19:47:55.321Z,9.19
2023-03-12T19:50:21.903Z,9.18
2023-03-12T19:52:49.749Z,9.18
2023-03-12T19:55:16.629Z,9.18
2023-03-12T19:57:43.353Z,9.19
2023-03-12T20:00:12.337Z,9.18
2023-03-12T20:02:40.169Z,9.18
2023-03-12T20:05:07.819Z,9.17
2023-03-12T20:07:34.933Z,9.16
2023-03-12T20:10:01.532Z,9.15
2023-03-12T20:12:28.513Z,9.16
2023-03-12T20:14:55.116Z,9.15
2023-03-12T20:17:21.939Z,9.14
2023-03-12T20:19:48.655Z,9.15
2023-03-12T20:22:15.242Z,9.14
2023-03-12T20:24:41.908Z,9.15
2023-03-12T20:27:09.698Z,9.15
2023-03-12T20:29:36.345Z,9.15
2023-03-12T20:32:03.034Z,9.14
2023-03-12T20:34:29.759Z,9.13
2023-03-12T20:36:57.998Z,9.13
2023-03-12T20:39:24.656Z,9.12
2023-03-12T20:41:51.263Z,9.09
2023-03-12T20:44:18.418Z,9.07
2023-03-12T20:46:46.115Z,9.04
2023-03-12T20:49:12.800Z,9.02
2023-03-12T20:51:40.614Z,9.02
2023-03-12T20:54:07.261Z,9.01
2023-03-12T20:56:33.915Z,9.03
2023-03-12T20:59:00.445Z,9.03
2023-03-12T21:01:27.696Z,9.04
2023-03-12T21:03:59.544Z,9.06
2023-03-12T21:06:26.689Z,9.08
2023-03-12T21:08:56.206Z,9.07
2023-03-12T21:11:22.796Z,9.08
2023-03-12T21:13:49.382Z,9.07
2023-03-12T21:16:16.117Z,9.08
2023-03-12T21:18:42.816Z,9.09
2023-03-12T21:21:09.670Z,9.09
2023-03-12T21:23:36.699Z,9.09
2023-03-12T21:26:08.902Z,9.09
2023-03-12T21:28:35.904Z,9.10
2023-03-12T21:31:08.172Z,9.09
2023-03-12T21:33:35.119Z,9.09
2023-03-12T21:36:04.996Z,9.10
2023-03-12T21:38:31.885Z,9.12
2023-03-12T21:41:07.626Z,9.14
2023-03-12T21:43:34.743Z,9.15
2023-03-12T21:46:10.388Z,9.16
2023-03-12T21:48:37.375Z,9.16
2023-03-12T21:51:06.280Z,9.17
2023-03-12T21:53:33.455Z,9.18
2023-03-12T21:56:01.514Z,9.20
2023-03-12T21:58:29.952Z,9.20
2023-03-12T22:01:05.778Z,9.19
2023-03-12T22:03:32.757Z,9.21
2023-03-12T22:06:00.028Z,9.22
2023-03-12T22:08:26.796Z,9.22
2023-03-12T22:10:53.605Z,9.23
2023-03-12T22:13:20.353Z,9.26
2023-03-12T22:15:55.156Z,9.27
2023-03-12T22:18:23.077Z,9.28
2023-03-12T22:20:58.084Z,9.29
2023-03-12T22:23:25.250Z,9.29
2023-03-12T22:25:52.045Z,9.30
2023-03-12T22:28:19.746Z,9.30
2023-03-12T22:30:46.754Z,9.30
2023-03-12T22:33:13.586Z,9.31
2023-03-12T22:35:47.073Z,9.31
2023-03-12T22:38:14.241Z,9.29
2023-03-12T22:40:42.818Z,9.28
2023-03-12T22:43:09.540Z,9.28
2023-03-12T22:45:36.407Z,9.28
2023-03-12T22:48:04.402Z,9.27
2023-03-12T22:50:31.103Z,9.28
2023-03-12T22:52:58.070Z,9.28
2023-03-12T22:55:25.364Z,9.27
2023-03-12T22:57:52.034Z,9.26
2023-03-12T23:00:23.012Z,9.26
2023-03-12T23:02:50.203Z,9.27
2023-03-12T23:05:17.416Z,9.26
2023-03-12T23:07:44.382Z,9.27
2023-03-12T23:10:11.551Z,9.28
2023-03-12T23:12:38.169Z,9.28
2023-03-12T23:15:05.846Z,9.28
2023-03-12T23:17:32.408Z,9.30
2023-03-12T23:19:59.117Z,9.30
2023-03-12T23:22:25.747Z,9.31
2023-03-12T23:24:52.699Z,9.31
2023-03-12T23:27:19.350Z,9.31
2023-03-12T23:29:45.973Z,9.33
2023-03-12T23:32:12.954Z,9.33
2023-03-12T23:34:39.553Z,9.36
2023-03-12T23:37:07.240Z,9.37
2023-03-12T23:39:42.010Z,9.40
2023-03-12T23:42:15.040Z,9.43
2023-03-12T23:44:41.661Z,9.46
2023-03-12T23:47:08.328Z,9.46
2023-03-12T23:49:35.138Z,9.49
2023-03-12T23:52:01.836Z,9.49
2023-03-12T23:54:28.527Z,9.49
2023-03-12T23:56:56.292Z,9.50
2023-03-12T23:59:23.044Z,9.51
